sensor_id;sensor_type;location;lat;lon;timestamp;P1;durP1;ratioP1;P2;durP2;ratioP2
6951;SDS011;3515;50.138;8.502;2022-07-22T00:00:05;2;;;0;;
6951;SDS011;3515;50.138;8.502;2022-07-22T00:02:29;3;;;0;;
6951;SDS011;3515;50.138;8.502;2022-07-22T00:04:55;3;;;0;;
6951;SDS011;3515;50.138;8.502;2022-07-22T00:07:20;3;;;0;;
6951;SDS011;3515;50.138;8.502;2022-07-22T00:09:45;2;;;0;;
6951;SDS011;3515;50.138;8.502;2022-07-22T00:12:10;2;;;0;;
6951;SDS011;3515;50.138;8.502;2022-07-22T00:14:36;2;;;0;;
6951;SDS011;3515;50.138;8.502;2022-07-22T00:17:01;3;;;0;;
6951;SDS011;3515;50.138;8.502;2022-07-22T00:19:26;2;;;0;;
6951;SDS011;3515;50.138;8.502;2022-07-22T00:21:51;2;;;0;;
6951;SDS011;3515;50.138;8.502;2022-07-22T00:24:17;2;;;0;;
6951;SDS011;3515;50.138;8.502;2022-07-22T00:26:42;2;;;0;;
6951;SDS011;3515;50.138;8.502;2022-07-22T00:29:07;2;;;0;;
6951;SDS011;3515;50.138;8.502;2022-07-22T00:31:32;2;;;0;;
6951;SDS011;3515;50.138;8.502;2022-07-22T00:33:59;2;;;0;;
6951;SDS011;3515;50.138;8.502;2022-07-22T00:36:23;2;;;0;;
6951;SDS011;3515;50.138;8.502;2022-07-22T00:38:48;2;;;0;;
6951;SDS011;3515;50.138;8.502;2022-07-22T00:41:14;2;;;0;;
6951;SDS011;3515;50.138;8.502;2022-07-22T00:46:04;2;;;0;;
6951;SDS011;3515;50.138;8.502;2022-07-22T00:48:29;2;;;0;;
6951;SDS011;3515;50.138;8.502;2022-07-22T00:50:54;2;;;0;;
6951;SDS011;3515;50.138;8.502;2022-07-22T00:53:20;3;;;0;;
6951;SDS011;3515;50.138;8.502;2022-07-22T00:55:45;3;;;0;;
6951;SDS011;3515;50.138;8.502;2022-07-22T00:58:10;3;;;0;;
6951;SDS011;3515;50.138;8.502;2022-07-22T01:00:35;3;;;0;;
6951;SDS011;3515;50.138;8.502;2022-07-22T01:03:01;3;;;0;;
6951;SDS011;3515;50.138;8.502;2022-07-22T01:05:26;4;;;0;;
6951;SDS011;3515;50.138;8.502;2022-07-22T01:07:51;4;;;0;;
6951;SDS011;3515;50.138;8.502;2022-07-22T01:10:16;4;;;0;;
6951;SDS011;3515;50.138;8.502;2022-07-22T01:12:42;3;;;0;;
6951;SDS011;3515;50.138;8.502;2022-07-22T01:15:07;3;;;0;;
6951;SDS011;3515;50.138;8.502;2022-07-22T01:17:32;3;;;0;;
6951;SDS011;3515;50.138;8.502;2022-07-22T01:19:59;3;;;0;;
6951;SDS011;3515;50.138;8.502;2022-07-22T01:22:23;3;;;0;;
6951;SDS011;3515;50.138;8.502;2022-07-22T01:24:48;2;;;0;;
6951;SDS011;3515;50.138;8.502;2022-07-22T01:27:13;2;;;0;;
6951;SDS011;3515;50.138;8.502;2022-07-22T01:29:38;2;;;0;;
6951;SDS011;3515;50.138;8.502;2022-07-22T01:32:04;2;;;0;;
6951;SDS011;3515;50.138;8.502;2022-07-22T01:34:29;2;;;0;;
6951;SDS011;3515;50.138;8.502;2022-07-22T01:36:54;2;;;0;;
6951;SDS011;3515;50.138;8.502;2022-07-22T01:39:19;2;;;0;;
6951;SDS011;3515;50.138;8.502;2022-07-22T01:41:51;2;;;0;;
6951;SDS011;3515;50.138;8.502;2022-07-22T01:44:15;2;;;0;;
6951;SDS011;3515;50.138;8.502;2022-07-22T01:46:40;2;;;0;;
6951;SDS011;3515;50.138;8.502;2022-07-22T01:49:05;2;;;0;;
6951;SDS011;3515;50.138;8.502;2022-07-22T01:51:30;2;;;0;;
6951;SDS011;3515;50.138;8.502;2022-07-22T01:53:56;2;;;0;;
6951;SDS011;3515;50.138;8.502;2022-07-22T01:56:21;3;;;0;;
6951;SDS011;3515;50.138;8.502;2022-07-22T01:58:46;3;;;0;;
6951;SDS011;3515;50.138;8.502;2022-07-22T02:01:12;3;;;0;;
6951;SDS011;3515;50.138;8.502;2022-07-22T02:03:37;3;;;0;;
6951;SDS011;3515;50.138;8.502;2022-07-22T02:06:02;3;;;0;;
6951;SDS011;3515;50.138;8.502;2022-07-22T02:08:27;3;;;0;;
6951;SDS011;3515;50.138;8.502;2022-07-22T02:10:53;3;;;0;;
6951;SDS011;3515;50.138;8.502;2022-07-22T02:13:18;3;;;0;;
6951;SDS011;3515;50.138;8.502;2022-07-22T02:15:43;3;;;0;;
6951;SDS011;3515;50.138;8.502;2022-07-22T02:18:10;3;;;0;;
6951;SDS011;3515;50.138;8.502;2022-07-22T02:20:34;3;;;0;;
6951;SDS011;3515;50.138;8.502;2022-07-22T02:22:59;3;;;0;;
6951;SDS011;3515;50.138;8.502;2022-07-22T02:25:24;3;;;0;;
6951;SDS011;3515;50.138;8.502;2022-07-22T02:27:49;3;;;0;;
6951;SDS011;3515;50.138;8.502;2022-07-22T02:30:15;2;;;0;;
6951;SDS011;3515;50.138;8.502;2022-07-22T02:32:40;3;;;0;;
6951;SDS011;3515;50.138;8.502;2022-07-22T02:35:05;3;;;0;;
6951;SDS011;3515;50.138;8.502;2022-07-22T02:37:30;2;;;0;;
6951;SDS011;3515;50.138;8.502;2022-07-22T02:39:56;2;;;0;;
6951;SDS011;3515;50.138;8.502;2022-07-22T02:42:21;3;;;0;;
6951;SDS011;3515;50.138;8.502;2022-07-22T02:44:46;2;;;0;;
6951;SDS011;3515;50.138;8.502;2022-07-22T02:47:12;2;;;0;;
6951;SDS011;3515;50.138;8.502;2022-07-22T02:49:37;2;;;0;;
6951;SDS011;3515;50.138;8.502;2022-07-22T02:52:02;4;;;0;;
6951;SDS011;3515;50.138;8.502;2022-07-22T02:54:27;5;;;0;;
6951;SDS011;3515;50.138;8.502;2022-07-22T02:56:53;5;;;0;;
6951;SDS011;3515;50.138;8.502;2022-07-22T02:59:18;5;;;0;;
6951;SDS011;3515;50.138;8.502;2022-07-22T03:01:43;5;;;0;;
6951;SDS011;3515;50.138;8.502;2022-07-22T03:04:08;5;;;0;;
6951;SDS011;3515;50.138;8.502;2022-07-22T03:06:34;5;;;0;;
6951;SDS011;3515;50.138;8.502;2022-07-22T03:08:59;4;;;0;;
6951;SDS011;3515;50.138;8.502;2022-07-22T03:11:24;3;;;0;;
6951;SDS011;3515;50.138;8.502;2022-07-22T03:13:50;3;;;0;;
6951;SDS011;3515;50.138;8.502;2022-07-22T03:16:15;2;;;0;;
6951;SDS011;3515;50.138;8.502;2022-07-22T03:18:40;2;;;0;;
6951;SDS011;3515;50.138;8.502;2022-07-22T03:21:05;2;;;0;;
6951;SDS011;3515;50.138;8.502;2022-07-22T03:23:31;2;;;0;;
6951;SDS011;3515;50.138;8.502;2022-07-22T03:25:56;3;;;0;;
6951;SDS011;3515;50.138;8.502;2022-07-22T03:28:21;3;;;0;;
6951;SDS011;3515;50.138;8.502;2022-07-22T03:30:46;3;;;0;;
6951;SDS011;3515;50.138;8.502;2022-07-22T03:33:12;3;;;0;;
6951;SDS011;3515;50.138;8.502;2022-07-22T03:35:37;3;;;0;;
6951;SDS011;3515;50.138;8.502;2022-07-22T03:38:02;3;;;0;;
6951;SDS011;3515;50.138;8.502;2022-07-22T03:40:27;3;;;0;;
6951;SDS011;3515;50.138;8.502;2022-07-22T03:42:53;3;;;0;;
6951;SDS011;3515;50.138;8.502;2022-07-22T03:45:18;2;;;0;;
6951;SDS011;3515;50.138;8.502;2022-07-22T03:47:43;2;;;0;;
6951;SDS011;3515;50.138;8.502;2022-07-22T03:50:08;2;;;0;;
6951;SDS011;3515;50.138;8.502;2022-07-22T03:52:34;2;;;0;;
6951;SDS011;3515;50.138;8.502;2022-07-22T03:54:59;2;;;0;;
6951;SDS011;3515;50.138;8.502;2022-07-22T03:57:24;2;;;0;;
6951;SDS011;3515;50.138;8.502;2022-07-22T03:59:50;2;;;0;;
6951;SDS011;3515;50.138;8.502;2022-07-22T04:02:15;2;;;0;;
6951;SDS011;3515;50.138;8.502;2022-07-22T04:04:40;2;;;0;;
6951;SDS011;3515;50.138;8.502;2022-07-22T04:07:05;2;;;0;;
6951;SDS011;3515;50.138;8.502;2022-07-22T04:09:31;2;;;0;;
6951;SDS011;3515;50.138;8.502;2022-07-22T04:11:56;2;;;0;;
6951;SDS011;3515;50.138;8.502;2022-07-22T04:14:21;3;;;0;;
6951;SDS011;3515;50.138;8.502;2022-07-22T04:16:47;3;;;0;;
6951;SDS011;3515;50.138;8.502;2022-07-22T04:19:12;3;;;0;;
6951;SDS011;3515;50.138;8.502;2022-07-22T04:21:37;3;;;0;;
6951;SDS011;3515;50.138;8.502;2022-07-22T04:24:02;3;;;0;;
6951;SDS011;3515;50.138;8.502;2022-07-22T04:26:28;3;;;0;;
6951;SDS011;3515;50.138;8.502;2022-07-22T04:28:53;3;;;0;;
6951;SDS011;3515;50.138;8.502;2022-07-22T04:31:18;3;;;0;;
6951;SDS011;3515;50.138;8.502;2022-07-22T04:33:43;3;;;0;;
6951;SDS011;3515;50.138;8.502;2022-07-22T04:36:09;3;;;0;;
6951;SDS011;3515;50.138;8.502;2022-07-22T04:38:34;3;;;0;;
6951;SDS011;3515;50.138;8.502;2022-07-22T04:40:59;3;;;0;;
6951;SDS011;3515;50.138;8.502;2022-07-22T04:43:24;3;;;0;;
6951;SDS011;3515;50.138;8.502;2022-07-22T04:45:50;3;;;0;;
6951;SDS011;3515;50.138;8.502;2022-07-22T04:48:15;3;;;0;;
6951;SDS011;3515;50.138;8.502;2022-07-22T04:50:40;3;;;0;;
6951;SDS011;3515;50.138;8.502;2022-07-22T04:53:05;3;;;0;;
6951;SDS011;3515;50.138;8.502;2022-07-22T04:55:31;3;;;0;;
6951;SDS011;3515;50.138;8.502;2022-07-22T04:57:56;3;;;0;;
6951;SDS011;3515;50.138;8.502;2022-07-22T05:00:21;3;;;0;;
6951;SDS011;3515;50.138;8.502;2022-07-22T05:02:53;3;;;0;;
6951;SDS011;3515;50.138;8.502;2022-07-22T05:05:17;3;;;0;;
6951;SDS011;3515;50.138;8.502;2022-07-22T05:07:42;3;;;0;;
6951;SDS011;3515;50.138;8.502;2022-07-22T05:10:08;3;;;0;;
6951;SDS011;3515;50.138;8.502;2022-07-22T05:12:32;3;;;0;;
6951;SDS011;3515;50.138;8.502;2022-07-22T05:14:58;3;;;0;;
6951;SDS011;3515;50.138;8.502;2022-07-22T05:17:23;3;;;0;;
6951;SDS011;3515;50.138;8.502;2022-07-22T05:19:48;3;;;0;;
6951;SDS011;3515;50.138;8.502;2022-07-22T05:22:13;3;;;0;;
6951;SDS011;3515;50.138;8.502;2022-07-22T05:24:39;3;;;0;;
6951;SDS011;3515;50.138;8.502;2022-07-22T05:27:04;3;;;0;;
6951;SDS011;3515;50.138;8.502;2022-07-22T05:29:29;3;;;0;;
6951;SDS011;3515;50.138;8.502;2022-07-22T05:31:55;3;;;0;;
6951;SDS011;3515;50.138;8.502;2022-07-22T05:34:21;3;;;0;;
6951;SDS011;3515;50.138;8.502;2022-07-22T05:36:46;3;;;0;;
6951;SDS011;3515;50.138;8.502;2022-07-22T05:39:12;3;;;0;;
6951;SDS011;3515;50.138;8.502;2022-07-22T05:41:37;3;;;0;;
6951;SDS011;3515;50.138;8.502;2022-07-22T05:44:02;3;;;0;;
6951;SDS011;3515;50.138;8.502;2022-07-22T05:46:27;3;;;0;;
6951;SDS011;3515;50.138;8.502;2022-07-22T05:48:53;3;;;0;;
6951;SDS011;3515;50.138;8.502;2022-07-22T05:51:18;3;;;0;;
6951;SDS011;3515;50.138;8.502;2022-07-22T05:53:43;3;;;0;;
6951;SDS011;3515;50.138;8.502;2022-07-22T05:56:09;3;;;0;;
6951;SDS011;3515;50.138;8.502;2022-07-22T05:58:34;4;;;0;;
6951;SDS011;3515;50.138;8.502;2022-07-22T06:00:59;4;;;1;;
6951;SDS011;3515;50.138;8.502;2022-07-22T06:03:24;4;;;1;;
6951;SDS011;3515;50.138;8.502;2022-07-22T06:05:50;4;;;1;;
6951;SDS011;3515;50.138;8.502;2022-07-22T06:08:15;5;;;1;;
6951;SDS011;3515;50.138;8.502;2022-07-22T06:10:40;4;;;1;;
6951;SDS011;3515;50.138;8.502;2022-07-22T06:13:06;5;;;1;;
6951;SDS011;3515;50.138;8.502;2022-07-22T06:15:31;4;;;1;;
6951;SDS011;3515;50.138;8.502;2022-07-22T06:17:56;5;;;1;;
6951;SDS011;3515;50.138;8.502;2022-07-22T06:20:22;5;;;1;;
6951;SDS011;3515;50.138;8.502;2022-07-22T06:22:47;5;;;1;;
6951;SDS011;3515;50.138;8.502;2022-07-22T06:25:12;5;;;1;;
6951;SDS011;3515;50.138;8.502;2022-07-22T06:27:37;4;;;1;;
6951;SDS011;3515;50.138;8.502;2022-07-22T06:30:03;5;;;1;;
6951;SDS011;3515;50.138;8.502;2022-07-22T06:32:28;5;;;1;;
6951;SDS011;3515;50.138;8.502;2022-07-22T06:34:53;4;;;0;;
6951;SDS011;3515;50.138;8.502;2022-07-22T06:37:18;3;;;0;;
6951;SDS011;3515;50.138;8.502;2022-07-22T06:39:44;3;;;0;;
6951;SDS011;3515;50.138;8.502;2022-07-22T06:42:09;3;;;0;;
6951;SDS011;3515;50.138;8.502;2022-07-22T06:44:34;3;;;0;;
6951;SDS011;3515;50.138;8.502;2022-07-22T06:46:59;3;;;0;;
6951;SDS011;3515;50.138;8.502;2022-07-22T06:49:25;4;;;1;;
6951;SDS011;3515;50.138;8.502;2022-07-22T06:51:50;4;;;1;;
6951;SDS011;3515;50.138;8.502;2022-07-22T06:54:15;4;;;1;;
6951;SDS011;3515;50.138;8.502;2022-07-22T06:56:40;5;;;1;;
6951;SDS011;3515;50.138;8.502;2022-07-22T06:59:06;5;;;1;;
6951;SDS011;3515;50.138;8.502;2022-07-22T07:01:31;6;;;2;;
6951;SDS011;3515;50.138;8.502;2022-07-22T07:03:56;6;;;2;;
6951;SDS011;3515;50.138;8.502;2022-07-22T07:06:21;6;;;2;;
6951;SDS011;3515;50.138;8.502;2022-07-22T07:08:47;6;;;2;;
6951;SDS011;3515;50.138;8.502;2022-07-22T07:11:12;5;;;2;;
6951;SDS011;3515;50.138;8.502;2022-07-22T07:13:37;5;;;2;;
6951;SDS011;3515;50.138;8.502;2022-07-22T07:16:03;5;;;2;;
6951;SDS011;3515;50.138;8.502;2022-07-22T07:18:28;5;;;2;;
6951;SDS011;3515;50.138;8.502;2022-07-22T07:20:53;4;;;2;;
6951;SDS011;3515;50.138;8.502;2022-07-22T07:23:18;5;;;2;;
6951;SDS011;3515;50.138;8.502;2022-07-22T07:25:44;5;;;2;;
6951;SDS011;3515;50.138;8.502;2022-07-22T07:28:09;5;;;3;;
6951;SDS011;3515;50.138;8.502;2022-07-22T07:30:34;5;;;3;;
6951;SDS011;3515;50.138;8.502;2022-07-22T07:32:59;5;;;2;;
6951;SDS011;3515;50.138;8.502;2022-07-22T07:35:25;4;;;2;;
6951;SDS011;3515;50.138;8.502;2022-07-22T07:37:50;4;;;2;;
6951;SDS011;3515;50.138;8.502;2022-07-22T07:40:15;4;;;2;;
6951;SDS011;3515;50.138;8.502;2022-07-22T07:42:40;4;;;1;;
6951;SDS011;3515;50.138;8.502;2022-07-22T07:45:06;3;;;1;;
6951;SDS011;3515;50.138;8.502;2022-07-22T07:47:31;3;;;1;;
6951;SDS011;3515;50.138;8.502;2022-07-22T07:49:56;3;;;1;;
6951;SDS011;3515;50.138;8.502;2022-07-22T07:52:21;3;;;1;;
6951;SDS011;3515;50.138;8.502;2022-07-22T07:54:47;4;;;1;;
6951;SDS011;3515;50.138;8.502;2022-07-22T07:57:12;4;;;1;;
6951;SDS011;3515;50.138;8.502;2022-07-22T07:59:37;4;;;1;;
6951;SDS011;3515;50.138;8.502;2022-07-22T08:02:03;4;;;1;;
6951;SDS011;3515;50.138;8.502;2022-07-22T08:04:28;4;;;1;;
6951;SDS011;3515;50.138;8.502;2022-07-22T08:06:53;4;;;1;;
6951;SDS011;3515;50.138;8.502;2022-07-22T08:09:18;4;;;1;;
6951;SDS011;3515;50.138;8.502;2022-07-22T08:11:43;4;;;1;;
6951;SDS011;3515;50.138;8.502;2022-07-22T08:14:09;4;;;1;;
6951;SDS011;3515;50.138;8.502;2022-07-22T08:16:34;4;;;1;;
6951;SDS011;3515;50.138;8.502;2022-07-22T08:18:59;5;;;2;;
6951;SDS011;3515;50.138;8.502;2022-07-22T08:21:25;5;;;2;;
6951;SDS011;3515;50.138;8.502;2022-07-22T08:23:50;5;;;1;;
6951;SDS011;3515;50.138;8.502;2022-07-22T08:26:15;5;;;2;;
6951;SDS011;3515;50.138;8.502;2022-07-22T08:28:40;6;;;2;;
6951;SDS011;3515;50.138;8.502;2022-07-22T08:31:06;6;;;2;;
6951;SDS011;3515;50.138;8.502;2022-07-22T08:33:31;6;;;2;;
6951;SDS011;3515;50.138;8.502;2022-07-22T08:35:56;6;;;2;;
6951;SDS011;3515;50.138;8.502;2022-07-22T08:38:21;5;;;2;;
6951;SDS011;3515;50.138;8.502;2022-07-22T08:40:47;4;;;2;;
6951;SDS011;3515;50.138;8.502;2022-07-22T08:43:12;4;;;1;;
6951;SDS011;3515;50.138;8.502;2022-07-22T08:45:38;4;;;1;;
6951;SDS011;3515;50.138;8.502;2022-07-22T08:48:03;3;;;1;;
6951;SDS011;3515;50.138;8.502;2022-07-22T08:50:28;3;;;1;;
6951;SDS011;3515;50.138;8.502;2022-07-22T08:52:53;3;;;0;;
6951;SDS011;3515;50.138;8.502;2022-07-22T08:55:24;3;;;0;;
6951;SDS011;3515;50.138;8.502;2022-07-22T08:57:49;3;;;0;;
6951;SDS011;3515;50.138;8.502;2022-07-22T09:00:15;3;;;0;;
6951;SDS011;3515;50.138;8.502;2022-07-22T09:02:40;3;;;0;;
6951;SDS011;3515;50.138;8.502;2022-07-22T09:05:05;3;;;0;;
6951;SDS011;3515;50.138;8.502;2022-07-22T09:07:30;3;;;0;;
6951;SDS011;3515;50.138;8.502;2022-07-22T09:09:55;2;;;0;;
6951;SDS011;3515;50.138;8.502;2022-07-22T09:12:20;2;;;0;;
6951;SDS011;3515;50.138;8.502;2022-07-22T09:14:46;2;;;0;;
6951;SDS011;3515;50.138;8.502;2022-07-22T09:17:22;2;;;0;;
6951;SDS011;3515;50.138;8.502;2022-07-22T09:19:36;2;;;0;;
6951;SDS011;3515;50.138;8.502;2022-07-22T09:22:01;2;;;0;;
6951;SDS011;3515;50.138;8.502;2022-07-22T09:24:28;2;;;0;;
6951;SDS011;3515;50.138;8.502;2022-07-22T09:26:53;2;;;0;;
6951;SDS011;3515;50.138;8.502;2022-07-22T09:29:17;3;;;0;;
6951;SDS011;3515;50.138;8.502;2022-07-22T09:31:43;3;;;0;;
6951;SDS011;3515;50.138;8.502;2022-07-22T09:34:08;3;;;0;;
6951;SDS011;3515;50.138;8.502;2022-07-22T09:36:33;3;;;0;;
6951;SDS011;3515;50.138;8.502;2022-07-22T09:38:58;4;;;0;;
6951;SDS011;3515;50.138;8.502;2022-07-22T09:41:23;4;;;0;;
6951;SDS011;3515;50.138;8.502;2022-07-22T09:43:49;4;;;0;;
6951;SDS011;3515;50.138;8.502;2022-07-22T09:46:14;4;;;0;;
6951;SDS011;3515;50.138;8.502;2022-07-22T09:48:39;3;;;0;;
6951;SDS011;3515;50.138;8.502;2022-07-22T09:51:05;3;;;0;;
6951;SDS011;3515;50.138;8.502;2022-07-22T09:53:31;3;;;0;;
6951;SDS011;3515;50.138;8.502;2022-07-22T09:55:55;3;;;0;;
6951;SDS011;3515;50.138;8.502;2022-07-22T09:58:20;2;;;0;;
6951;SDS011;3515;50.138;8.502;2022-07-22T10:00:45;2;;;0;;
6951;SDS011;3515;50.138;8.502;2022-07-22T10:03:11;3;;;0;;
6951;SDS011;3515;50.138;8.502;2022-07-22T10:05:37;3;;;0;;
6951;SDS011;3515;50.138;8.502;2022-07-22T10:08:02;3;;;0;;
6951;SDS011;3515;50.138;8.502;2022-07-22T10:10:28;3;;;0;;
6951;SDS011;3515;50.138;8.502;2022-07-22T10:12:53;4;;;0;;
6951;SDS011;3515;50.138;8.502;2022-07-22T10:15:17;4;;;0;;
6951;SDS011;3515;50.138;8.502;2022-07-22T10:17:43;6;;;0;;
6951;SDS011;3515;50.138;8.502;2022-07-22T10:20:08;6;;;0;;
6951;SDS011;3515;50.138;8.502;2022-07-22T10:24:59;6;;;0;;
6951;SDS011;3515;50.138;8.502;2022-07-22T10:29:49;6;;;0;;
6951;SDS011;3515;50.138;8.502;2022-07-22T10:32:22;7;;;0;;
6951;SDS011;3515;50.138;8.502;2022-07-22T10:34:39;7;;;0;;
6951;SDS011;3515;50.138;8.502;2022-07-22T10:37:18;5;;;0;;
6951;SDS011;3515;50.138;8.502;2022-07-22T10:39:30;5;;;0;;
6951;SDS011;3515;50.138;8.502;2022-07-22T10:41:55;5;;;0;;
6951;SDS011;3515;50.138;8.502;2022-07-22T10:46:47;4;;;0;;
6951;SDS011;3515;50.138;8.502;2022-07-22T10:49:11;4;;;0;;
6951;SDS011;3515;50.138;8.502;2022-07-22T10:51:36;3;;;0;;
6951;SDS011;3515;50.138;8.502;2022-07-22T10:54:01;3;;;0;;
6951;SDS011;3515;50.138;8.502;2022-07-22T10:56:27;3;;;0;;
6951;SDS011;3515;50.138;8.502;2022-07-22T10:58:53;2;;;0;;
6951;SDS011;3515;50.138;8.502;2022-07-22T11:01:18;2;;;0;;
6951;SDS011;3515;50.138;8.502;2022-07-22T11:03:43;2;;;0;;
6951;SDS011;3515;50.138;8.502;2022-07-22T11:06:13;2;;;0;;
6951;SDS011;3515;50.138;8.502;2022-07-22T11:08:33;2;;;0;;
6951;SDS011;3515;50.138;8.502;2022-07-22T11:10:58;3;;;0;;
6951;SDS011;3515;50.138;8.502;2022-07-22T11:13:31;2;;;0;;
6951;SDS011;3515;50.138;8.502;2022-07-22T11:15:49;2;;;0;;
6951;SDS011;3515;50.138;8.502;2022-07-22T11:18:14;3;;;0;;
6951;SDS011;3515;50.138;8.502;2022-07-22T11:20:39;2;;;0;;
6951;SDS011;3515;50.138;8.502;2022-07-22T11:23:04;3;;;0;;
6951;SDS011;3515;50.138;8.502;2022-07-22T11:25:30;3;;;0;;
6951;SDS011;3515;50.138;8.502;2022-07-22T11:27:55;3;;;0;;
6951;SDS011;3515;50.138;8.502;2022-07-22T11:30:20;3;;;0;;
6951;SDS011;3515;50.138;8.502;2022-07-22T11:32:46;3;;;0;;
6951;SDS011;3515;50.138;8.502;2022-07-22T11:35:11;3;;;0;;
6951;SDS011;3515;50.138;8.502;2022-07-22T11:37:36;3;;;0;;
6951;SDS011;3515;50.138;8.502;2022-07-22T11:40:03;3;;;0;;
6951;SDS011;3515;50.138;8.502;2022-07-22T11:42:27;4;;;0;;
6951;SDS011;3515;50.138;8.502;2022-07-22T11:44:52;4;;;0;;
6951;SDS011;3515;50.138;8.502;2022-07-22T11:47:17;4;;;0;;
6951;SDS011;3515;50.138;8.502;2022-07-22T11:49:44;4;;;0;;
6951;SDS011;3515;50.138;8.502;2022-07-22T11:52:08;4;;;0;;
6951;SDS011;3515;50.138;8.502;2022-07-22T11:54:33;4;;;0;;
6951;SDS011;3515;50.138;8.502;2022-07-22T11:56:58;4;;;1;;
6951;SDS011;3515;50.138;8.502;2022-07-22T11:59:23;4;;;0;;
6951;SDS011;3515;50.138;8.502;2022-07-22T12:01:48;3;;;0;;
6951;SDS011;3515;50.138;8.502;2022-07-22T12:04:15;4;;;1;;
6951;SDS011;3515;50.138;8.502;2022-07-22T12:06:41;4;;;1;;
6951;SDS011;3515;50.138;8.502;2022-07-22T12:09:05;4;;;1;;
6951;SDS011;3515;50.138;8.502;2022-07-22T12:11:29;4;;;1;;
6951;SDS011;3515;50.138;8.502;2022-07-22T12:13:55;4;;;1;;
6951;SDS011;3515;50.138;8.502;2022-07-22T12:16:21;4;;;1;;
6951;SDS011;3515;50.138;8.502;2022-07-22T12:18:50;4;;;1;;
6951;SDS011;3515;50.138;8.502;2022-07-22T12:21:11;4;;;1;;
6951;SDS011;3515;50.138;8.502;2022-07-22T12:23:36;3;;;1;;
6951;SDS011;3515;50.138;8.502;2022-07-22T12:26:01;3;;;1;;
6951;SDS011;3515;50.138;8.502;2022-07-22T12:28:27;3;;;1;;
6951;SDS011;3515;50.138;8.502;2022-07-22T12:30:52;4;;;1;;
6951;SDS011;3515;50.138;8.502;2022-07-22T12:33:17;4;;;1;;
6951;SDS011;3515;50.138;8.502;2022-07-22T12:35:42;4;;;1;;
6951;SDS011;3515;50.138;8.502;2022-07-22T12:38:08;5;;;1;;
6951;SDS011;3515;50.138;8.502;2022-07-22T12:40:33;6;;;2;;
6951;SDS011;3515;50.138;8.502;2022-07-22T12:43:00;6;;;2;;
6951;SDS011;3515;50.138;8.502;2022-07-22T12:45:23;6;;;2;;
6951;SDS011;3515;50.138;8.502;2022-07-22T12:47:55;6;;;2;;
6951;SDS011;3515;50.138;8.502;2022-07-22T12:50:21;7;;;2;;
6951;SDS011;3515;50.138;8.502;2022-07-22T12:52:44;8;;;3;;
6951;SDS011;3515;50.138;8.502;2022-07-22T12:55:09;9;;;3;;
6951;SDS011;3515;50.138;8.502;2022-07-22T12:57:34;9;;;3;;
6951;SDS011;3515;50.138;8.502;2022-07-22T13:00:00;9;;;3;;
6951;SDS011;3515;50.138;8.502;2022-07-22T13:02:25;9;;;3;;
6951;SDS011;3515;50.138;8.502;2022-07-22T13:04:50;10;;;3;;
6951;SDS011;3515;50.138;8.502;2022-07-22T13:07:15;11;;;3;;
6951;SDS011;3515;50.138;8.502;2022-07-22T13:09:41;10;;;3;;
6951;SDS011;3515;50.138;8.502;2022-07-22T13:12:06;11;;;3;;
6951;SDS011;3515;50.138;8.502;2022-07-22T13:14:31;10;;;3;;
6951;SDS011;3515;50.138;8.502;2022-07-22T13:16:56;9;;;3;;
6951;SDS011;3515;50.138;8.502;2022-07-22T13:19:22;8;;;2;;
6951;SDS011;3515;50.138;8.502;2022-07-22T13:21:47;8;;;2;;
6951;SDS011;3515;50.138;8.502;2022-07-22T13:24:12;7;;;2;;
6951;SDS011;3515;50.138;8.502;2022-07-22T13:26:38;6;;;2;;
6951;SDS011;3515;50.138;8.502;2022-07-22T13:29:03;5;;;1;;
6951;SDS011;3515;50.138;8.502;2022-07-22T13:31:28;4;;;1;;
6951;SDS011;3515;50.138;8.502;2022-07-22T13:33:53;4;;;1;;
6951;SDS011;3515;50.138;8.502;2022-07-22T13:36:18;3;;;1;;
6951;SDS011;3515;50.138;8.502;2022-07-22T13:38:44;3;;;0;;
6951;SDS011;3515;50.138;8.502;2022-07-22T13:41:09;3;;;0;;
6951;SDS011;3515;50.138;8.502;2022-07-22T13:43:35;3;;;0;;
6951;SDS011;3515;50.138;8.502;2022-07-22T13:46:00;3;;;1;;
6951;SDS011;3515;50.138;8.502;2022-07-22T13:48:25;3;;;1;;
6951;SDS011;3515;50.138;8.502;2022-07-22T13:50:50;3;;;1;;
6951;SDS011;3515;50.138;8.502;2022-07-22T13:53:16;4;;;1;;
6951;SDS011;3515;50.138;8.502;2022-07-22T13:55:41;4;;;1;;
6951;SDS011;3515;50.138;8.502;2022-07-22T13:58:06;4;;;1;;
6951;SDS011;3515;50.138;8.502;2022-07-22T14:00:32;5;;;1;;
6951;SDS011;3515;50.138;8.502;2022-07-22T14:02:57;5;;;1;;
6951;SDS011;3515;50.138;8.502;2022-07-22T14:05:22;5;;;1;;
6951;SDS011;3515;50.138;8.502;2022-07-22T14:07:47;5;;;1;;
6951;SDS011;3515;50.138;8.502;2022-07-22T14:10:13;5;;;1;;
6951;SDS011;3515;50.138;8.502;2022-07-22T14:12:38;6;;;1;;
6951;SDS011;3515;50.138;8.502;2022-07-22T14:15:04;7;;;1;;
6951;SDS011;3515;50.138;8.502;2022-07-22T14:17:28;6;;;1;;
6951;SDS011;3515;50.138;8.502;2022-07-22T14:19:54;7;;;1;;
6951;SDS011;3515;50.138;8.502;2022-07-22T14:22:19;6;;;1;;
6951;SDS011;3515;50.138;8.502;2022-07-22T14:24:44;6;;;1;;
6951;SDS011;3515;50.138;8.502;2022-07-22T14:27:09;6;;;1;;
6951;SDS011;3515;50.138;8.502;2022-07-22T14:29:35;6;;;1;;
6951;SDS011;3515;50.138;8.502;2022-07-22T14:32:00;5;;;1;;
6951;SDS011;3515;50.138;8.502;2022-07-22T14:34:25;4;;;1;;
6951;SDS011;3515;50.138;8.502;2022-07-22T14:36:51;4;;;1;;
6951;SDS011;3515;50.138;8.502;2022-07-22T14:39:16;4;;;1;;
6951;SDS011;3515;50.138;8.502;2022-07-22T14:41:41;4;;;1;;
6951;SDS011;3515;50.138;8.502;2022-07-22T14:44:06;4;;;1;;
6951;SDS011;3515;50.138;8.502;2022-07-22T14:46:31;4;;;1;;
6951;SDS011;3515;50.138;8.502;2022-07-22T14:48:57;4;;;1;;
6951;SDS011;3515;50.138;8.502;2022-07-22T14:51:22;4;;;1;;
6951;SDS011;3515;50.138;8.502;2022-07-22T14:53:48;5;;;1;;
6951;SDS011;3515;50.138;8.502;2022-07-22T14:56:13;5;;;1;;
6951;SDS011;3515;50.138;8.502;2022-07-22T14:58:38;5;;;1;;
6951;SDS011;3515;50.138;8.502;2022-07-22T15:01:03;6;;;1;;
6951;SDS011;3515;50.138;8.502;2022-07-22T15:03:28;6;;;1;;
6951;SDS011;3515;50.138;8.502;2022-07-22T15:05:54;6;;;1;;
6951;SDS011;3515;50.138;8.502;2022-07-22T15:08:19;6;;;1;;
6951;SDS011;3515;50.138;8.502;2022-07-22T15:10:44;5;;;1;;
6951;SDS011;3515;50.138;8.502;2022-07-22T15:13:09;5;;;1;;
6951;SDS011;3515;50.138;8.502;2022-07-22T15:15:35;5;;;1;;
6951;SDS011;3515;50.138;8.502;2022-07-22T15:18:00;5;;;1;;
6951;SDS011;3515;50.138;8.502;2022-07-22T15:20:25;5;;;1;;
6951;SDS011;3515;50.138;8.502;2022-07-22T15:22:50;5;;;1;;
6951;SDS011;3515;50.138;8.502;2022-07-22T15:25:16;5;;;1;;
6951;SDS011;3515;50.138;8.502;2022-07-22T15:27:41;5;;;1;;
6951;SDS011;3515;50.138;8.502;2022-07-22T15:30:07;5;;;1;;
6951;SDS011;3515;50.138;8.502;2022-07-22T15:32:31;5;;;1;;
6951;SDS011;3515;50.138;8.502;2022-07-22T15:34:57;4;;;1;;
6951;SDS011;3515;50.138;8.502;2022-07-22T15:37:22;4;;;1;;
6951;SDS011;3515;50.138;8.502;2022-07-22T15:39:47;4;;;1;;
6951;SDS011;3515;50.138;8.502;2022-07-22T15:42:12;4;;;1;;
6951;SDS011;3515;50.138;8.502;2022-07-22T15:44:38;4;;;1;;
6951;SDS011;3515;50.138;8.502;2022-07-22T15:47:03;5;;;1;;
6951;SDS011;3515;50.138;8.502;2022-07-22T15:49:28;6;;;1;;
6951;SDS011;3515;50.138;8.502;2022-07-22T15:51:53;6;;;1;;
6951;SDS011;3515;50.138;8.502;2022-07-22T15:54:19;6;;;1;;
6951;SDS011;3515;50.138;8.502;2022-07-22T15:56:44;6;;;1;;
6951;SDS011;3515;50.138;8.502;2022-07-22T15:59:09;6;;;1;;
6951;SDS011;3515;50.138;8.502;2022-07-22T16:01:34;6;;;1;;
6951;SDS011;3515;50.138;8.502;2022-07-22T16:03:59;5;;;1;;
6951;SDS011;3515;50.138;8.502;2022-07-22T16:06:25;5;;;1;;
6951;SDS011;3515;50.138;8.502;2022-07-22T16:08:50;5;;;1;;
6951;SDS011;3515;50.138;8.502;2022-07-22T16:11:15;5;;;1;;
6951;SDS011;3515;50.138;8.502;2022-07-22T16:13:40;5;;;1;;
6951;SDS011;3515;50.138;8.502;2022-07-22T16:16:06;5;;;2;;
6951;SDS011;3515;50.138;8.502;2022-07-22T16:18:31;5;;;2;;
6951;SDS011;3515;50.138;8.502;2022-07-22T16:20:56;5;;;2;;
6951;SDS011;3515;50.138;8.502;2022-07-22T16:23:21;5;;;2;;
6951;SDS011;3515;50.138;8.502;2022-07-22T16:25:47;6;;;2;;
6951;SDS011;3515;50.138;8.502;2022-07-22T16:28:12;8;;;3;;
6951;SDS011;3515;50.138;8.502;2022-07-22T16:30:37;9;;;3;;
6951;SDS011;3515;50.138;8.502;2022-07-22T16:33:02;10;;;4;;
6951;SDS011;3515;50.138;8.502;2022-07-22T16:35:28;12;;;4;;
6951;SDS011;3515;50.138;8.502;2022-07-22T16:37:53;11;;;4;;
6951;SDS011;3515;50.138;8.502;2022-07-22T16:40:18;12;;;5;;
6951;SDS011;3515;50.138;8.502;2022-07-22T16:42:44;12;;;5;;
6951;SDS011;3515;50.138;8.502;2022-07-22T16:45:09;11;;;4;;